createdAt,value
2019-03-22T00:00:53.096Z,103043.41
2019-03-22T00:03:22.807Z,103042.09
2019-03-22T00:05:52.416Z,103037.09
2019-03-22T00:08:21.938Z,103027.78
2019-03-22T00:10:51.494Z,103020.66
2019-03-22T00:13:21.028Z,103008.58
2019-03-22T00:15:50.708Z,103012.38
2019-03-22T00:18:20.273Z,103005.01
2019-03-22T00:20:49.954Z,102998.03
2019-03-22T00:23:19.488Z,102994.00
2019-03-22T00:25:49.514Z,102990.49
2019-03-22T00:28:19.120Z,102995.31
2019-03-22T00:30:48.858Z,103001.16
2019-03-22T00:33:18.710Z,103001.16
2019-03-22T00:35:48.342Z,103005.75
2019-03-22T00:38:20.831Z,102995.82
2019-03-22T00:40:50.482Z,102993.67
2019-03-22T00:43:20.082Z,102989.81
2019-03-22T00:45:49.802Z,102978.88
2019-03-22T00:48:19.420Z,102984.05
2019-03-22T00:50:48.948Z,102983.82
2019-03-22T00:53:18.618Z,102987.28
2019-03-22T00:55:48.200Z,102979.91
2019-03-22T00:58:17.733Z,102978.55
2019-03-22T01:00:47.353Z,102977.23
2019-03-22T01:03:17.315Z,102986.50
2019-03-22T01:05:48.637Z,102976.23
2019-03-22T01:08:18.276Z,102979.47
2019-03-22T01:10:49.617Z,102975.58
2019-03-22T01:13:19.222Z,102983.45
2019-03-22T01:15:48.743Z,102973.88
2019-03-22T01:18:18.334Z,102976.30
2019-03-22T01:20:48.321Z,102979.31
2019-03-22T01:23:17.843Z,102975.87
2019-03-22T01:25:47.409Z,102987.44
2019-03-22T01:28:16.935Z,102990.37
2019-03-22T01:30:46.444Z,102981.57
2019-03-22T01:33:16.076Z,102987.99
2019-03-22T01:35:45.644Z,102980.31
2019-03-22T01:38:15.169Z,102981.92
2019-03-22T01:40:45.290Z,102986.39
2019-03-22T01:43:14.958Z,102987.04
2019-03-22T01:45:44.577Z,102981.38
2019-03-22T01:48:14.216Z,102986.58
2019-03-22T01:50:43.750Z,102981.02
2019-03-22T01:53:13.346Z,102988.06
2019-03-22T01:55:42.979Z,102988.70
2019-03-22T01:58:12.661Z,102988.80
2019-03-22T02:00:42.326Z,102993.86
2019-03-22T02:03:12.161Z,102995.86
2019-03-22T02:05:43.599Z,102991.38
2019-03-22T02:08:13.655Z,102993.86
2019-03-22T02:10:43.278Z,102986.02
2019-03-22T02:13:12.827Z,102984.30
2019-03-22T02:15:42.414Z,102986.27
2019-03-22T02:18:12.056Z,102993.58
2019-03-22T02:20:41.622Z,102988.14
2019-03-22T02:23:11.345Z,102979.11
2019-03-22T02:25:41.385Z,102978.00
2019-03-22T02:28:11.052Z,102973.75
2019-03-22T02:30:40.575Z,102975.23
2019-03-22T02:33:10.154Z,102966.33
2019-03-22T02:35:40.109Z,102964.59
2019-03-22T02:38:09.660Z,102960.63
2019-03-22T02:40:39.312Z,102966.58
2019-03-22T02:43:08.957Z,102964.78
2019-03-22T02:45:38.675Z,102966.39
2019-03-22T02:48:08.508Z,102969.34
2019-03-22T02:50:38.050Z,102969.95
2019-03-22T02:53:07.661Z,102980.35
2019-03-22T02:55:37.629Z,102980.96
2019-03-22T02:58:19.715Z,102985.66
2019-03-22T03:00:38.626Z,102981.69
2019-03-22T03:03:08.328Z,102974.89
2019-03-22T03:05:37.862Z,102977.50
2019-03-22T03:08:07.547Z,102971.70
2019-03-22T03:10:37.352Z,102962.31
2019-03-22T03:13:06.945Z,102969.11
2019-03-22T03:15:36.469Z,102967.75
2019-03-22T03:18:06.096Z,102974.67
2019-03-22T03:20:35.723Z,102967.62
2019-03-22T03:23:05.415Z,102968.09
2019-03-22T03:25:35.048Z,102964.42
2019-03-22T03:28:04.728Z,102967.38
2019-03-22T03:30:34.344Z,102968.59
2019-03-22T03:33:04.628Z,102970.84
2019-03-22T03:35:35.744Z,102965.03
2019-03-22T03:38:05.398Z,102968.50
2019-03-22T03:40:35.132Z,102974.80
2019-03-22T03:43:04.890Z,102985.66
2019-03-22T03:45:38.235Z,102977.85
2019-03-22T03:48:15.946Z,102967.08
2019-03-22T03:50:46.127Z,102971.17
2019-03-22T03:53:15.755Z,102968.49
2019-03-22T03:55:45.441Z,102960.92
2019-03-22T03:58:16.004Z,102959.91
2019-03-22T04:00:45.613Z,102957.95
2019-03-22T04:03:15.247Z,102952.27
2019-03-22T04:05:44.786Z,102950.91
2019-03-22T04:08:14.341Z,102954.53
2019-03-22T04:10:44.045Z,102963.30
2019-03-22T04:13:13.588Z,102962.44
2019-03-22T04:15:43.290Z,102960.09
2019-03-22T04:18:13.370Z,102958.70
2019-03-22T04:20:42.888Z,102955.61
2019-03-22T04:23:12.425Z,102957.61
2019-03-22T04:25:41.977Z,102960.21
2019-03-22T04:28:11.593Z,102957.00
2019-03-22T04:30:41.122Z,102961.82
2019-03-22T04:33:11.169Z,102967.38
2019-03-22T04:35:40.685Z,102971.56
2019-03-22T04:38:10.438Z,102963.52
2019-03-22T04:40:39.985Z,102965.11
2019-03-22T04:43:09.514Z,102972.25
2019-03-22T04:45:41.345Z,102977.36
2019-03-22T04:48:21.818Z,102978.46
2019-03-22T04:50:54.098Z,102978.11
2019-03-22T04:53:25.888Z,102974.66
2019-03-22T04:56:01.778Z,102971.81
2019-03-22T04:58:32.611Z,102982.17
2019-03-22T05:01:03.469Z,102987.75
2019-03-22T05:03:35.757Z,102996.77
2019-03-22T05:06:07.534Z,102998.73
2019-03-22T05:08:39.670Z,103006.39
2019-03-22T05:11:12.363Z,102997.74
2019-03-22T05:13:46.079Z,102997.61
2019-03-22T05:16:18.608Z,102991.94
2019-03-22T05:18:50.191Z,102991.19
2019-03-22T05:21:23.902Z,102991.94
2019-03-22T05:23:58.646Z,102991.77
2019-03-22T05:26:30.543Z,102991.65
2019-03-22T05:29:01.506Z,102987.31
2019-03-22T05:31:44.606Z,102993.89
2019-03-22T05:34:16.940Z,102999.60
2019-03-22T05:36:46.547Z,103011.12
2019-03-22T05:39:16.364Z,103010.63
2019-03-22T05:41:45.971Z,103007.14
2019-03-22T05:44:15.552Z,103006.91
2019-03-22T05:46:45.180Z,103014.09
2019-03-22T05:49:14.714Z,103012.09
2019-03-22T05:51:44.332Z,103013.22
2019-03-22T05:54:13.845Z,103009.66
2019-03-22T05:56:43.389Z,103020.52
2019-03-22T05:59:12.958Z,103022.00
2019-03-22T06:01:45.381Z,103036.59
2019-03-22T06:04:15.184Z,103045.27
2019-03-22T06:06:44.814Z,103044.27
2019-03-22T06:09:14.440Z,103045.63
2019-03-22T06:11:44.111Z,103052.44
2019-03-22T06:14:13.799Z,103057.14
2019-03-22T06:16:43.586Z,103060.23
2019-03-22T06:19:13.237Z,103058.25
2019-03-22T06:21:43.003Z,103062.83
2019-03-22T06:24:12.722Z,103062.95
2019-03-22T06:26:42.547Z,103059.61
2019-03-22T06:29:12.349Z,103065.17
2019-03-22T06:31:42.007Z,103071.96
2019-03-22T06:34:11.850Z,103071.95
2019-03-22T06:36:41.588Z,103071.97
2019-03-22T06:39:11.366Z,103078.66
2019-03-22T06:41:41.117Z,103077.67
2019-03-22T06:44:10.707Z,103078.91
2019-03-22T06:46:41.116Z,103086.70
2019-03-22T06:49:10.833Z,103085.70
2019-03-22T06:51:40.572Z,103072.97
2019-03-22T06:54:11.871Z,103075.42
2019-03-22T06:56:41.487Z,103062.23
2019-03-22T06:59:11.160Z,103059.67
2019-03-22T07:01:40.878Z,103050.57
2019-03-22T07:04:12.361Z,103047.86
2019-03-22T07:06:42.018Z,103043.16
2019-03-22T07:09:11.857Z,103051.45
2019-03-22T07:11:42.018Z,103041.80
2019-03-22T07:14:11.659Z,103045.62
2019-03-22T07:16:41.452Z,103045.43
2019-03-22T07:19:11.136Z,103046.19
2019-03-22T07:21:40.828Z,103046.13
2019-03-22T07:24:10.741Z,103058.99
2019-03-22T07:26:40.430Z,103056.37
2019-03-22T07:29:10.207Z,103057.03
2019-03-22T07:31:40.813Z,103048.20
2019-03-22T07:34:10.441Z,103039.84
2019-03-22T07:36:40.230Z,103044.70
2019-03-22T07:39:10.649Z,103045.70
2019-03-22T07:41:40.354Z,103055.27
2019-03-22T07:44:09.893Z,103046.38
2019-03-22T07:46:39.703Z,103042.72
2019-03-22T07:49:09.405Z,103039.44
2019-03-22T07:51:38.969Z,103042.72
2019-03-22T07:54:10.637Z,103050.72
2019-03-22T07:56:40.422Z,103054.33
2019-03-22T07:59:10.142Z,103048.75
2019-03-22T08:01:41.209Z,103045.56
2019-03-22T08:04:10.855Z,103040.31
2019-03-22T08:06:40.605Z,103046.13
2019-03-22T08:09:10.489Z,103042.60
2019-03-22T08:11:40.769Z,103047.11
2019-03-22T08:14:10.317Z,103041.84
2019-03-22T08:16:42.988Z,103038.77
2019-03-22T08:19:12.855Z,103038.28
2019-03-22T08:21:42.602Z,103032.16
2019-03-22T08:24:18.149Z,103040.45
2019-03-22T08:26:47.826Z,103034.02
2019-03-22T08:29:17.553Z,103036.36
2019-03-22T08:31:47.906Z,103031.79
2019-03-22T08:34:17.632Z,103027.20
2019-03-22T08:36:47.277Z,103025.61
2019-03-22T08:39:16.982Z,103025.43
2019-03-22T08:41:46.727Z,103025.42
2019-03-22T08:44:16.523Z,103038.02
2019-03-22T08:46:46.338Z,103037.73
2019-03-22T08:49:16.313Z,103032.66
2019-03-22T08:51:46.064Z,103025.85
2019-03-22T08:54:18.663Z,103025.47
2019-03-22T08:56:48.364Z,103024.11
2019-03-22T08:59:18.093Z,103025.36
2019-03-22T09:01:48.286Z,103023.63
2019-03-22T09:04:18.025Z,103026.09
2019-03-22T09:06:47.745Z,103020.72
2019-03-22T09:09:17.574Z,103018.25
2019-03-22T09:11:47.296Z,103010.96
2019-03-22T09:14:17.127Z,103006.63
2019-03-22T09:16:47.220Z,103010.96
2019-03-22T09:19:17.012Z,103013.59
2019-03-22T09:21:46.705Z,103012.44
2019-03-22T09:24:18.949Z,103014.05
2019-03-22T09:26:48.178Z,103008.75
2019-03-22T09:29:18.258Z,103001.00
2019-03-22T09:31:48.307Z,103001.38
2019-03-22T09:34:18.132Z,103001.66
2019-03-22T09:36:47.801Z,103001.45
2019-03-22T09:39:17.471Z,103000.81
2019-03-22T09:41:47.167Z,103000.95
2019-03-22T09:44:16.920Z,102999.86
2019-03-22T09:46:46.717Z,103001.90
2019-03-22T09:49:16.509Z,102999.82
2019-03-22T09:51:46.231Z,102998.17
2019-03-22T09:54:17.244Z,102987.38
2019-03-22T09:56:47.633Z,102978.77
2019-03-22T09:59:17.625Z,102972.92
2019-03-22T10:01:47.403Z,102971.62
2019-03-22T10:04:17.090Z,102984.97
2019-03-22T10:06:47.530Z,102974.03
2019-03-22T10:09:17.481Z,102972.41
2019-03-22T10:11:47.272Z,102966.97
2019-03-22T10:14:17.136Z,102966.25
2019-03-22T10:16:47.944Z,102967.11
2019-03-22T10:19:17.633Z,102965.91
2019-03-22T10:21:47.550Z,102960.12
2019-03-22T10:24:17.344Z,102957.84
2019-03-22T10:26:46.996Z,102956.91
2019-03-22T10:29:16.787Z,102955.20
2019-03-22T10:31:46.499Z,102961.59
2019-03-22T10:34:16.295Z,102956.28
2019-03-22T10:36:46.263Z,102954.74
2019-03-22T10:39:16.538Z,102947.21
2019-03-22T10:41:46.186Z,102944.39
2019-03-22T10:44:15.847Z,102943.47
2019-03-22T10:46:45.584Z,102938.21
2019-03-22T10:49:15.404Z,102934.13
2019-03-22T10:51:55.993Z,102925.72
2019-03-22T10:54:16.604Z,102915.47
2019-03-22T10:56:46.480Z,102912.51
2019-03-22T10:59:16.306Z,102916.87
2019-03-22T11:01:57.431Z,102918.23
2019-03-22T11:04:17.643Z,102912.59
2019-03-22T11:06:47.353Z,102898.59
2019-03-22T11:09:17.623Z,102898.76
2019-03-22T11:11:47.417Z,102901.59
2019-03-22T11:14:17.107Z,102911.09
2019-03-22T11:16:47.005Z,102897.29
2019-03-22T11:19:17.114Z,102904.56
2019-03-22T11:21:46.839Z,102892.86
2019-03-22T11:24:16.541Z,102883.08
2019-03-22T11:26:46.294Z,102883.59
2019-03-22T11:29:16.011Z,102888.38
2019-03-22T11:31:45.930Z,102880.47
2019-03-22T11:34:15.561Z,102870.22
2019-03-22T11:36:45.326Z,102867.25
2019-03-22T11:39:16.115Z,102870.17
2019-03-22T11:41:46.001Z,102877.34
2019-03-22T11:44:15.640Z,102867.16
2019-03-22T11:46:45.600Z,102861.30
2019-03-22T11:49:15.288Z,102858.14
2019-03-22T11:51:45.452Z,102852.77
2019-03-22T11:54:15.147Z,102838.67
2019-03-22T11:56:44.953Z,102848.98
2019-03-22T11:59:14.590Z,102830.38
2019-03-22T12:01:44.425Z,102822.39
2019-03-22T12:04:14.116Z,102822.22
2019-03-22T12:06:43.716Z,102820.05
2019-03-22T12:09:13.610Z,102809.55
2019-03-22T12:11:43.515Z,102804.33
2019-03-22T12:14:13.801Z,102800.63
2019-03-22T12:16:43.575Z,102790.89
2019-03-22T12:19:13.259Z,102783.79
2019-03-22T12:21:43.072Z,102774.87
2019-03-22T12:24:13.029Z,102780.34
2019-03-22T12:26:42.663Z,102775.70
2019-03-22T12:29:12.314Z,102783.58
2019-03-22T12:31:46.939Z,102775.50
2019-03-22T12:34:16.539Z,102768.42
2019-03-22T12:36:47.654Z,102755.69
2019-03-22T12:39:17.351Z,102757.69
2019-03-22T12:41:47.038Z,102764.98
2019-03-22T12:44:19.461Z,102758.63
2019-03-22T12:46:49.590Z,102752.98
2019-03-22T12:49:19.150Z,102753.55
2019-03-22T12:51:48.963Z,102743.08
2019-03-22T12:54:20.264Z,102741.80
2019-03-22T12:56:49.788Z,102734.22
2019-03-22T12:59:19.419Z,102734.32
2019-03-22T13:01:49.163Z,102729.09
2019-03-22T13:04:19.046Z,102719.62
2019-03-22T13:06:48.673Z,102718.81
2019-03-22T13:09:20.277Z,102719.43
2019-03-22T13:11:50.461Z,102714.13
2019-03-22T13:14:20.196Z,102716.59
2019-03-22T13:16:50.098Z,102712.27
2019-03-22T13:19:20.139Z,102708.23
2019-03-22T13:21:49.897Z,102695.09
2019-03-22T13:24:20.143Z,102707.17
2019-03-22T13:26:49.924Z,102694.40
2019-03-22T13:29:21.063Z,102691.75
2019-03-22T13:31:53.549Z,102689.04
2019-03-22T13:34:23.307Z,102681.27
2019-03-22T13:36:53.156Z,102674.54
2019-03-22T13:39:22.883Z,102674.11
2019-03-22T13:41:52.581Z,102669.08
2019-03-22T13:44:22.264Z,102665.28
2019-03-22T13:46:52.124Z,102656.05
2019-03-22T13:49:21.901Z,102656.45
2019-03-22T13:51:51.743Z,102658.09
2019-03-22T13:54:22.066Z,102655.08
2019-03-22T13:56:51.931Z,102656.92
2019-03-22T13:59:23.631Z,102658.75
2019-03-22T14:01:54.037Z,102652.45
2019-03-22T14:04:23.722Z,102645.00
2019-03-22T14:06:53.658Z,102639.64
2019-03-22T14:09:23.947Z,102640.09
2019-03-22T14:11:53.758Z,102627.33
2019-03-22T14:14:24.298Z,102626.41
2019-03-22T14:16:54.190Z,102625.61
2019-03-22T14:19:24.014Z,102613.47
2019-03-22T14:21:53.920Z,102612.43
2019-03-22T14:24:23.877Z,102606.96
2019-03-22T14:26:53.760Z,102604.50
2019-03-22T14:29:23.529Z,102605.58
2019-03-22T14:31:53.506Z,102612.63
2019-03-22T14:34:23.234Z,102610.43
2019-03-22T14:36:56.215Z,102598.59
2019-03-22T14:39:26.276Z,102604.16
2019-03-22T14:41:56.138Z,102594.86
2019-03-22T14:44:28.206Z,102590.33
2019-03-22T14:46:59.666Z,102596.68
2019-03-22T14:49:29.474Z,102591.18
2019-03-22T14:51:59.159Z,102581.59
2019-03-22T14:54:29.055Z,102575.02
2019-03-22T14:56:59.220Z,102575.03
2019-03-22T14:59:32.150Z,102574.91
2019-03-22T15:02:02.045Z,102575.32
2019-03-22T15:04:31.864Z,102564.23
2019-03-22T15:07:01.633Z,102567.34
2019-03-22T15:09:31.686Z,102564.91
2019-03-22T15:12:01.542Z,102554.84
2019-03-22T15:14:48.655Z,102547.75
2019-03-22T15:17:36.202Z,102545.45
2019-03-22T15:20:25.668Z,102541.93
2019-03-22T15:23:13.543Z,102547.34
2019-03-22T15:25:45.187Z,102540.99
2019-03-22T15:28:22.451Z,102545.67
2019-03-22T15:30:52.006Z,102538.86
2019-03-22T15:33:39.387Z,102537.52
2019-03-22T15:36:14.728Z,102530.23
2019-03-22T15:39:01.229Z,102532.20
2019-03-22T15:41:31.146Z,102520.22
2019-03-22T15:44:01.211Z,102506.17
2019-03-22T15:46:31.026Z,102508.69
2019-03-22T15:49:00.704Z,102508.16
2019-03-22T15:51:30.468Z,102505.78
2019-03-22T15:54:00.173Z,102501.90
2019-03-22T15:56:30.083Z,102497.03
2019-03-22T15:58:59.966Z,102488.69
2019-03-22T16:01:29.716Z,102487.70
2019-03-22T16:03:59.537Z,102487.84
2019-03-22T16:06:29.509Z,102482.78
2019-03-22T16:08:59.287Z,102473.84
2019-03-22T16:11:29.207Z,102484.35
2019-03-22T16:14:01.102Z,102471.89
2019-03-22T16:16:30.826Z,102461.05
2019-03-22T16:19:00.850Z,102453.80
2019-03-22T16:21:31.568Z,102461.72
2019-03-22T16:24:02.396Z,102458.44
2019-03-22T16:26:32.726Z,102457.30
2019-03-22T16:29:03.248Z,102447.63
2019-03-22T16:31:34.741Z,102446.02
2019-03-22T16:34:05.965Z,102452.91
2019-03-22T16:36:35.753Z,102446.63
2019-03-22T16:39:08.678Z,102445.01
2019-03-22T16:41:38.427Z,102440.88
2019-03-22T16:44:08.563Z,102435.36
2019-03-22T16:46:38.514Z,102434.47
2019-03-22T16:49:27.627Z,102438.92
2019-03-22T16:51:57.411Z,102437.44
2019-03-22T16:54:27.122Z,102436.41
2019-03-22T16:56:56.812Z,102430.13
2019-03-22T16:59:26.591Z,102431.48
2019-03-22T17:01:56.252Z,102428.22
2019-03-22T17:04:26.130Z,102429.77
2019-03-22T17:06:55.912Z,102429.59
2019-03-22T17:09:25.893Z,102422.23
2019-03-22T17:11:55.995Z,102433.71
2019-03-22T17:14:25.984Z,102426.68
2019-03-22T17:16:56.326Z,102425.97
2019-03-22T17:19:26.116Z,102423.94
2019-03-22T17:21:55.980Z,102417.25
2019-03-22T17:24:26.029Z,102411.94
2019-03-22T17:26:55.955Z,102417.08
2019-03-22T17:29:27.198Z,102409.84
2019-03-22T17:31:56.934Z,102411.54
2019-03-22T17:34:27.075Z,102408.27
2019-03-22T17:36:56.849Z,102409.06
2019-03-22T17:39:26.603Z,102405.88
2019-03-22T17:41:57.150Z,102408.22
2019-03-22T17:44:27.034Z,102407.25
2019-03-22T17:46:56.858Z,102402.23
2019-03-22T17:49:26.657Z,102410.59
2019-03-22T17:51:56.352Z,102409.55
2019-03-22T17:54:26.138Z,102416.05
2019-03-22T17:56:56.086Z,102408.46
2019-03-22T17:59:26.079Z,102409.55
2019-03-22T18:01:57.114Z,102410.16
2019-03-22T18:04:26.956Z,102409.83
2019-03-22T18:06:56.697Z,102413.14
2019-03-22T18:09:26.372Z,102410.30
2019-03-22T18:11:56.023Z,102419.25
2019-03-22T18:14:26.998Z,102410.52
2019-03-22T18:16:57.477Z,102419.64
2019-03-22T18:19:27.292Z,102417.13
2019-03-22T18:21:56.981Z,102409.47
2019-03-22T18:24:26.669Z,102417.89
2019-03-22T18:26:56.358Z,102418.24
2019-03-22T18:29:26.981Z,102421.22
2019-03-22T18:31:57.014Z,102415.76
2019-03-22T18:34:33.939Z,102412.64
2019-03-22T18:36:58.317Z,102410.05
2019-03-22T18:39:27.974Z,102420.78
2019-03-22T18:41:57.832Z,102424.15
2019-03-22T18:44:27.467Z,102427.39
2019-03-22T18:46:57.158Z,102424.19
2019-03-22T18:49:32.894Z,102422.16
2019-03-22T18:52:02.944Z,102426.30
2019-03-22T18:54:32.526Z,102424.30
2019-03-22T18:57:02.447Z,102424.46
2019-03-22T18:59:32.276Z,102428.48
2019-03-22T19:02:02.051Z,102433.17
2019-03-22T19:04:31.977Z,102438.98
2019-03-22T19:07:01.845Z,102432.31
2019-03-22T19:09:32.613Z,102434.42
2019-03-22T19:12:02.993Z,102430.83
2019-03-22T19:14:33.668Z,102438.83
2019-03-22T19:17:03.488Z,102432.50
2019-03-22T19:19:33.493Z,102438.70
2019-03-22T19:22:03.397Z,102433.24
2019-03-22T19:24:33.315Z,102442.95
2019-03-22T19:27:22.460Z,102439.89
2019-03-22T19:29:53.782Z,102440.19
2019-03-22T19:32:23.611Z,102443.27
2019-03-22T19:34:54.539Z,102437.80
2019-03-22T19:37:24.634Z,102431.92
2019-03-22T19:39:54.251Z,102433.94
2019-03-22T19:42:24.003Z,102441.14
2019-03-22T19:44:53.720Z,102437.73
2019-03-22T19:47:23.602Z,102433.94
2019-03-22T19:49:53.253Z,102434.03
2019-03-22T19:52:22.928Z,102426.09
2019-03-22T19:54:52.650Z,102432.30
2019-03-22T19:57:22.422Z,102424.46
2019-03-22T19:59:52.250Z,102427.59
2019-03-22T20:02:21.930Z,102421.87
2019-03-22T20:04:53.079Z,102422.87
2019-03-22T20:07:26.847Z,102428.83
2019-03-22T20:09:54.294Z,102429.54
2019-03-22T20:12:24.670Z,102431.36
2019-03-22T20:15:01.640Z,102430.91
2019-03-22T20:17:31.349Z,102425.69
2019-03-22T20:20:01.263Z,102425.95
2019-03-22T20:22:33.809Z,102422.87
2019-03-22T20:25:04.915Z,102414.06
2019-03-22T20:27:34.446Z,102419.22
2019-03-22T20:30:08.676Z,102415.78
2019-03-22T20:32:38.700Z,102403.31
2019-03-22T20:35:16.191Z,102400.36
2019-03-22T20:37:42.215Z,102389.27
2019-03-22T20:40:16.121Z,102381.33
2019-03-22T20:42:45.859Z,102385.47
2019-03-22T20:45:23.683Z,102390.19
2019-03-22T20:47:48.744Z,102380.59
2019-03-22T20:50:18.798Z,102380.24
2019-03-22T20:52:48.412Z,102378.81
2019-03-22T20:55:18.208Z,102377.09
2019-03-22T20:57:48.234Z,102378.81
2019-03-22T21:00:19.078Z,102378.17
2019-03-22T21:02:48.929Z,102374.66
2019-03-22T21:05:26.490Z,102376.02
2019-03-22T21:07:50.047Z,102367.78
2019-03-22T21:10:20.404Z,102372.30
2019-03-22T21:12:50.020Z,102367.84
2019-03-22T21:15:24.224Z,102367.42
2019-03-22T21:17:51.189Z,102358.19
2019-03-22T21:20:20.751Z,102366.47
2019-03-22T21:22:50.408Z,102364.39
2019-03-22T21:25:20.143Z,102364.91
2019-03-22T21:27:49.762Z,102365.28
2019-03-22T21:30:19.523Z,102364.20
2019-03-22T21:32:49.853Z,102357.03
2019-03-22T21:35:22.812Z,102362.27
2019-03-22T21:37:50.900Z,102353.95
2019-03-22T21:40:20.561Z,102352.37
2019-03-22T21:42:50.248Z,102353.67
2019-03-22T21:45:19.942Z,102346.30
2019-03-22T21:47:49.591Z,102351.66
2019-03-22T21:50:19.198Z,102351.45
2019-03-22T21:52:48.879Z,102347.30
2019-03-22T21:55:18.555Z,102338.34
2019-03-22T21:57:48.227Z,102344.44
2019-03-22T22:00:18.118Z,102335.70
2019-03-22T22:02:47.924Z,102336.27
2019-03-22T22:05:17.739Z,102333.91
2019-03-22T22:07:47.248Z,102324.45
2019-03-22T22:10:19.046Z,102325.67
2019-03-22T22:12:48.919Z,102317.71
2019-03-22T22:15:18.822Z,102314.14
2019-03-22T22:17:48.944Z,102311.77
2019-03-22T22:20:28.550Z,102303.21
2019-03-22T22:22:49.966Z,102305.89
2019-03-22T22:25:19.621Z,102298.66
2019-03-22T22:27:49.539Z,102290.86
2019-03-22T22:30:19.449Z,102291.14
2019-03-22T22:32:49.005Z,102290.63
2019-03-22T22:35:18.601Z,102284.84
2019-03-22T22:37:48.257Z,102287.77
2019-03-22T22:40:18.032Z,102278.52
2019-03-22T22:42:49.050Z,102277.60
2019-03-22T22:45:18.644Z,102280.27
2019-03-22T22:47:48.425Z,102275.75
2019-03-22T22:50:18.202Z,102276.45
2019-03-22T22:52:47.881Z,102270.52
2019-03-22T22:55:17.529Z,102265.67
2019-03-22T22:57:47.118Z,102265.61
2019-03-22T23:00:18.371Z,102265.86
2019-03-22T23:02:48.486Z,102259.28
2019-03-22T23:05:18.256Z,102259.57
2019-03-22T23:07:47.804Z,102254.39
2019-03-22T23:10:17.506Z,102264.20
2019-03-22T23:12:47.148Z,102254.88
2019-03-22T23:15:16.769Z,102249.79
2019-03-22T23:17:47.297Z,102252.61
2019-03-22T23:20:16.908Z,102246.55
2019-03-22T23:22:46.435Z,102247.91
2019-03-22T23:25:17.813Z,102245.25
2019-03-22T23:27:47.354Z,102240.49
2019-03-22T23:30:17.209Z,102250.17
2019-03-22T23:32:46.952Z,102242.57
2019-03-22T23:35:18.196Z,102244.21
2019-03-22T23:37:47.774Z,102234.71
2019-03-22T23:40:17.342Z,102240.86
2019-03-22T23:42:46.906Z,102236.16
2019-03-22T23:45:16.605Z,102233.08
2019-03-22T23:47:46.516Z,102232.94
2019-03-22T23:50:16.143Z,102229.14
2019-03-22T23:52:45.827Z,102224.48
2019-03-22T23:55:15.560Z,102225.39
2019-03-22T23:57:45.171Z,102222.81
